createdAt,value
2022-08-23T05:22:04.717Z,1011.95
2022-08-23T05:27:08.673Z,1011.94
2022-08-23T05:31:52.472Z,1012
2022-08-23T05:36:55.297Z,1012.04
2022-08-23T05:41:52.594Z,1012.08
2022-08-23T05:46:53.251Z,1011.99
2022-08-23T05:51:53.912Z,1011.98
2022-08-23T05:56:54.605Z,1012.03
2022-08-23T06:01:55.301Z,1012.03
2022-08-23T06:06:58.803Z,1012.04
2022-08-23T06:11:59.464Z,1012.19
2022-08-23T06:17:00.083Z,1012.22
2022-08-23T06:22:00.783Z,1012.24
2022-08-23T06:27:01.473Z,1012.26
2022-08-23T06:32:02.258Z,1012.25
2022-08-23T06:37:02.999Z,1012.26
2022-08-23T06:42:07.592Z,1012.31
2022-08-23T06:47:04.374Z,1012.31
2022-08-23T06:52:04.940Z,1012.36
2022-08-23T06:57:05.786Z,1012.44
2022-08-23T07:02:06.498Z,1012.41
2022-08-23T07:07:12.340Z,1012.31
2022-08-23T07:12:07.760Z,1012.31
2022-08-23T07:17:08.423Z,1012.36
2022-08-23T07:22:09.181Z,1012.36
2022-08-23T07:27:09.753Z,1012.36
2022-08-23T07:32:13.619Z,1012.35
2022-08-23T07:37:15.626Z,1012.38
2022-08-23T07:42:22.117Z,1012.36
2022-08-23T07:47:15.103Z,1012.5
2022-08-23T07:52:15.970Z,1012.51
2022-08-23T07:57:16.568Z,1012.39
2022-08-23T08:02:17.365Z,1012.39
2022-08-23T08:07:19.676Z,1012.39
2022-08-23T08:12:18.530Z,1012.43
2022-08-23T08:17:19.987Z,1012.5
2022-08-23T08:22:19.840Z,1012.44
2022-08-23T08:27:26.043Z,1012.56
2022-08-23T08:32:21.388Z,1012.64
2022-08-23T08:37:21.907Z,1012.61
2022-08-23T08:42:23.161Z,1012.63
2022-08-23T08:47:23.616Z,1012.56
2022-08-23T08:52:26.772Z,1012.6
2022-08-23T08:57:27.628Z,1012.56
2022-08-23T09:02:31.754Z,1012.67
2022-08-23T09:07:31.201Z,1012.55
2022-08-23T09:12:34.428Z,1012.62
2022-08-23T09:17:30.384Z,1012.66
2022-08-23T09:22:32.288Z,1012.63
2022-08-23T09:27:32.782Z,1012.62
2022-08-23T09:32:32.679Z,1012.67
2022-08-23T09:37:32.884Z,1012.69
2022-08-23T09:41:50.251Z,1012.7
2022-08-23T09:46:39.399Z,1012.66
2022-08-23T09:56:41.035Z,1012.69
2022-08-23T10:01:41.481Z,1012.67
2022-08-23T10:06:42.449Z,1012.63
2022-08-23T10:11:42.771Z,1012.63
2022-08-23T10:21:49.741Z,1012.62
2022-08-23T10:26:51.214Z,1012.58
2022-08-23T10:32:46.382Z,1012.59
2022-08-23T10:36:52.049Z,1012.51
2022-08-23T10:42:02.984Z,1012.52
2022-08-23T10:46:53.396Z,1012.54
2022-08-23T10:51:53.904Z,1012.54
2022-08-23T10:56:57.371Z,1012.6
2022-08-23T11:01:58.264Z,1012.6
2022-08-23T11:06:58.696Z,1012.64
2022-08-23T11:11:59.508Z,1012.67
2022-08-23T11:17:00.111Z,1012.7
2022-08-23T11:22:00.696Z,1012.69
2022-08-23T11:27:05.459Z,1012.71
2022-08-23T11:32:01.905Z,1012.66
2022-08-23T11:41:44.786Z,1012.69
2022-08-23T11:46:39.477Z,1012.73
2022-08-23T11:51:40.124Z,1012.82
2022-08-23T11:56:44.460Z,1012.79
2022-08-23T12:01:41.859Z,1012.82
2022-08-23T12:06:41.972Z,1012.97
2022-08-23T12:11:42.703Z,1012.9
2022-08-23T12:16:44.367Z,1012.88
2022-08-23T12:21:43.992Z,1012.84
2022-08-23T12:26:45.141Z,1012.86
2022-08-23T12:31:48.159Z,1012.81
2022-08-23T12:36:48.756Z,1012.77
2022-08-23T12:51:50.849Z,1012.74
2022-08-23T12:56:42.002Z,1012.68
2022-08-23T13:01:47.441Z,1012.65
2022-08-23T13:06:40.172Z,1012.62
2022-08-23T13:16:38.817Z,1012.68
2022-08-23T13:21:40.155Z,1012.52
2022-08-23T13:26:38.928Z,1012.55
2022-08-23T13:32:54.484Z,1012.53
2022-08-23T13:41:52.671Z,1012.34
2022-08-23T13:46:40.571Z,1012.43
2022-08-23T14:01:39.156Z,1012.36
2022-08-23T14:06:42.415Z,1012.42
2022-08-23T14:12:34.851Z,1012.33
2022-08-23T14:16:34.740Z,1012.35
2022-08-23T18:11:36.170Z,1012.84
2022-08-23T18:21:37.569Z,1013.07
2022-08-23T18:26:36.911Z,1013.11
2022-08-23T18:31:42.322Z,1013.18
2022-08-23T18:36:38.336Z,1013.16
2022-08-23T18:41:46.588Z,1013.17
2022-08-23T18:46:42.245Z,1013.26
2022-08-23T18:51:49.420Z,1013.27
2022-08-23T18:56:55.134Z,1013.23
2022-08-23T19:02:08.516Z,1013.29
2022-08-23T19:09:00.773Z,1013.39
2022-08-23T19:16:29.226Z,1013.41
2022-08-23T19:21:38.583Z,1013.4
2022-08-23T19:26:28.436Z,1013.59
2022-08-23T19:36:46.787Z,1013.66
2022-08-23T19:41:29.030Z,1013.67
2022-08-23T19:51:45.613Z,1013.75
2022-08-23T20:01:37.755Z,1013.78
2022-08-23T20:06:33.669Z,1013.9
2022-08-23T20:11:34.052Z,1013.9
2022-08-23T20:16:34.806Z,1013.96
2022-08-23T20:26:35.935Z,1013.87
2022-08-23T20:31:36.634Z,1014
2022-08-23T20:36:37.251Z,1013.98
2022-08-23T20:41:37.918Z,1013.91
2022-08-23T20:46:38.638Z,1014.02
2022-08-23T20:56:42.697Z,1014.09
2022-08-23T21:01:43.267Z,1014.15
2022-08-23T21:06:45.237Z,1014.06
2022-08-23T21:11:29.316Z,1013.98
2022-08-23T21:16:29.018Z,1014.05
2022-08-23T21:21:29.711Z,1014.01
2022-08-23T21:26:30.345Z,1014.06
2022-08-23T21:31:33.828Z,1013.93
2022-08-23T21:36:34.416Z,1013.91
2022-08-23T21:41:35.038Z,1013.88
2022-08-23T21:46:35.980Z,1013.89
2022-08-23T21:51:36.490Z,1013.93
2022-08-23T21:56:37.176Z,1013.97
2022-08-23T22:01:37.912Z,1013.83
2022-08-23T22:06:39.016Z,1013.76
2022-08-23T22:11:39.223Z,1013.87
2022-08-23T22:16:44.789Z,1013.89
2022-08-23T22:21:40.639Z,1013.85
2022-08-23T22:26:41.328Z,1013.77
2022-08-23T22:31:42.000Z,1013.91
2022-08-23T22:36:42.665Z,1013.82
2022-08-23T22:47:28.814Z,1013.84
2022-08-23T22:51:49.069Z,1013.86
2022-08-23T22:56:48.157Z,1013.86
2022-08-23T23:11:50.983Z,1013.86
2022-08-23T23:16:51.145Z,1013.82
2022-08-23T23:21:52.132Z,1013.86
2022-08-23T23:26:52.918Z,1013.85
2022-08-23T23:31:40.481Z,1013.9
2022-08-23T23:36:40.093Z,1013.83
2022-08-23T23:41:51.367Z,1013.82
2022-08-23T23:46:43.426Z,1013.74
2022-08-23T23:51:42.121Z,1013.73
